sensor_id;sensor_type;location;lat;lon;timestamp;P1;durP1;ratioP1;P2;durP2;ratioP2
41434;SDS011;27177;22.262;114.192;2022-07-06T00:01:20;18.42;;;11.30;;
41434;SDS011;27177;22.262;114.192;2022-07-06T00:03:47;28.92;;;9.77;;
41434;SDS011;27177;22.262;114.192;2022-07-06T00:06:14;23.90;;;10.60;;
41434;SDS011;27177;22.262;114.192;2022-07-06T00:08:43;17.25;;;9.50;;
41434;SDS011;27177;22.262;114.192;2022-07-06T00:11:10;18.02;;;10.05;;
41434;SDS011;27177;22.262;114.192;2022-07-06T00:13:37;26.40;;;9.95;;
41434;SDS011;27177;22.262;114.192;2022-07-06T00:16:04;20.35;;;10.13;;
41434;SDS011;27177;22.262;114.192;2022-07-06T00:18:31;17.52;;;8.93;;
41434;SDS011;27177;22.262;114.192;2022-07-06T00:20:58;19.70;;;8.60;;
41434;SDS011;27177;22.262;114.192;2022-07-06T00:23:25;22.30;;;10.82;;
41434;SDS011;27177;22.262;114.192;2022-07-06T00:25:52;16.38;;;8.90;;
41434;SDS011;27177;22.262;114.192;2022-07-06T00:28:19;16.73;;;8.15;;
41434;SDS011;27177;22.262;114.192;2022-07-06T00:30:46;16.95;;;8.57;;
41434;SDS011;27177;22.262;114.192;2022-07-06T00:33:13;19.58;;;8.75;;
41434;SDS011;27177;22.262;114.192;2022-07-06T00:35:40;23.05;;;9.23;;
41434;SDS011;27177;22.262;114.192;2022-07-06T00:38:07;19.45;;;8.50;;
41434;SDS011;27177;22.262;114.192;2022-07-06T00:40:34;17.10;;;8.10;;
41434;SDS011;27177;22.262;114.192;2022-07-06T00:43:01;19.50;;;8.57;;
41434;SDS011;27177;22.262;114.192;2022-07-06T00:45:29;14.27;;;8.63;;
41434;SDS011;27177;22.262;114.192;2022-07-06T00:47:56;16.27;;;7.43;;
41434;SDS011;27177;22.262;114.192;2022-07-06T00:50:23;22.65;;;8.45;;
41434;SDS011;27177;22.262;114.192;2022-07-06T00:52:59;17.42;;;7.95;;
41434;SDS011;27177;22.262;114.192;2022-07-06T00:55:30;19.85;;;9.18;;
41434;SDS011;27177;22.262;114.192;2022-07-06T00:58:02;13.52;;;7.70;;
41434;SDS011;27177;22.262;114.192;2022-07-06T01:00:31;15.50;;;8.07;;
41434;SDS011;27177;22.262;114.192;2022-07-06T01:02:59;17.52;;;8.40;;
41434;SDS011;27177;22.262;114.192;2022-07-06T01:05:27;19.38;;;7.82;;
41434;SDS011;27177;22.262;114.192;2022-07-06T01:07:55;21.27;;;8.55;;
41434;SDS011;27177;22.262;114.192;2022-07-06T01:10:22;17.27;;;7.15;;
41434;SDS011;27177;22.262;114.192;2022-07-06T01:12:49;16.35;;;8.27;;
41434;SDS011;27177;22.262;114.192;2022-07-06T01:15:20;13.07;;;7.82;;
41434;SDS011;27177;22.262;114.192;2022-07-06T01:17:49;16.45;;;7.78;;
41434;SDS011;27177;22.262;114.192;2022-07-06T01:20:18;20.38;;;8.48;;
41434;SDS011;27177;22.262;114.192;2022-07-06T01:22:49;20.77;;;8.73;;
41434;SDS011;27177;22.262;114.192;2022-07-06T01:25:17;18.10;;;9.52;;
41434;SDS011;27177;22.262;114.192;2022-07-06T01:27:46;16.50;;;7.32;;
41434;SDS011;27177;22.262;114.192;2022-07-06T01:30:14;18.40;;;7.88;;
41434;SDS011;27177;22.262;114.192;2022-07-06T01:32:42;17.33;;;8.20;;
41434;SDS011;27177;22.262;114.192;2022-07-06T01:35:11;14.50;;;7.60;;
41434;SDS011;27177;22.262;114.192;2022-07-06T01:37:39;18.75;;;7.95;;
41434;SDS011;27177;22.262;114.192;2022-07-06T01:40:08;15.98;;;8.85;;
41434;SDS011;27177;22.262;114.192;2022-07-06T01:42:36;17.23;;;8.20;;
41434;SDS011;27177;22.262;114.192;2022-07-06T01:45:04;19.20;;;8.27;;
41434;SDS011;27177;22.262;114.192;2022-07-06T01:47:31;20.02;;;8.75;;
41434;SDS011;27177;22.262;114.192;2022-07-06T01:49:59;19.60;;;8.63;;
41434;SDS011;27177;22.262;114.192;2022-07-06T01:52:27;21.48;;;9.27;;
41434;SDS011;27177;22.262;114.192;2022-07-06T01:54:55;19.70;;;8.63;;
41434;SDS011;27177;22.262;114.192;2022-07-06T01:57:22;16.80;;;8.23;;
41434;SDS011;27177;22.262;114.192;2022-07-06T01:59:49;18.65;;;7.88;;
41434;SDS011;27177;22.262;114.192;2022-07-06T02:02:16;17.73;;;7.50;;
41434;SDS011;27177;22.262;114.192;2022-07-06T02:04:44;17.40;;;8.18;;
41434;SDS011;27177;22.262;114.192;2022-07-06T02:07:11;21.45;;;7.82;;
41434;SDS011;27177;22.262;114.192;2022-07-06T02:09:38;15.50;;;7.80;;
41434;SDS011;27177;22.262;114.192;2022-07-06T02:12:05;19.65;;;7.57;;
41434;SDS011;27177;22.262;114.192;2022-07-06T02:14:32;18.88;;;8.25;;
41434;SDS011;27177;22.262;114.192;2022-07-06T02:16:59;17.98;;;6.97;;
41434;SDS011;27177;22.262;114.192;2022-07-06T02:19:26;14.13;;;6.50;;
41434;SDS011;27177;22.262;114.192;2022-07-06T02:21:53;16.85;;;7.03;;
41434;SDS011;27177;22.262;114.192;2022-07-06T02:24:20;14.73;;;7.50;;
41434;SDS011;27177;22.262;114.192;2022-07-06T02:26:47;17.45;;;8.02;;
41434;SDS011;27177;22.262;114.192;2022-07-06T02:29:14;13.85;;;7.13;;
41434;SDS011;27177;22.262;114.192;2022-07-06T02:31:41;14.70;;;6.78;;
41434;SDS011;27177;22.262;114.192;2022-07-06T02:34:08;17.10;;;6.50;;
41434;SDS011;27177;22.262;114.192;2022-07-06T02:36:34;16.73;;;7.20;;
41434;SDS011;27177;22.262;114.192;2022-07-06T02:39:01;18.17;;;7.63;;
41434;SDS011;27177;22.262;114.192;2022-07-06T02:41:29;17.90;;;7.07;;
41434;SDS011;27177;22.262;114.192;2022-07-06T02:43:56;22.50;;;7.57;;
41434;SDS011;27177;22.262;114.192;2022-07-06T02:46:23;14.70;;;6.97;;
41434;SDS011;27177;22.262;114.192;2022-07-06T02:48:49;18.60;;;7.80;;
41434;SDS011;27177;22.262;114.192;2022-07-06T02:51:17;18.50;;;7.28;;
41434;SDS011;27177;22.262;114.192;2022-07-06T02:53:44;16.65;;;7.55;;
41434;SDS011;27177;22.262;114.192;2022-07-06T02:56:10;16.02;;;6.65;;
41434;SDS011;27177;22.262;114.192;2022-07-06T02:58:37;15.30;;;6.93;;
41434;SDS011;27177;22.262;114.192;2022-07-06T03:01:04;16.73;;;7.15;;
41434;SDS011;27177;22.262;114.192;2022-07-06T03:03:32;12.65;;;7.32;;
41434;SDS011;27177;22.262;114.192;2022-07-06T03:05:59;17.45;;;7.30;;
41434;SDS011;27177;22.262;114.192;2022-07-06T03:08:26;20.30;;;7.88;;
41434;SDS011;27177;22.262;114.192;2022-07-06T03:10:53;18.85;;;7.68;;
41434;SDS011;27177;22.262;114.192;2022-07-06T03:13:20;15.43;;;6.88;;
41434;SDS011;27177;22.262;114.192;2022-07-06T03:15:47;14.82;;;6.72;;
41434;SDS011;27177;22.262;114.192;2022-07-06T03:18:14;14.15;;;7.00;;
41434;SDS011;27177;22.262;114.192;2022-07-06T03:20:41;12.57;;;6.47;;
41434;SDS011;27177;22.262;114.192;2022-07-06T03:23:07;11.65;;;6.50;;
41434;SDS011;27177;22.262;114.192;2022-07-06T03:25:36;20.10;;;7.53;;
41434;SDS011;27177;22.262;114.192;2022-07-06T03:28:04;17.10;;;7.40;;
41434;SDS011;27177;22.262;114.192;2022-07-06T03:30:31;16.42;;;7.50;;
41434;SDS011;27177;22.262;114.192;2022-07-06T03:32:58;17.80;;;7.63;;
41434;SDS011;27177;22.262;114.192;2022-07-06T03:35:25;17.45;;;7.47;;
41434;SDS011;27177;22.262;114.192;2022-07-06T03:37:52;16.92;;;6.72;;
41434;SDS011;27177;22.262;114.192;2022-07-06T03:40:19;16.20;;;7.25;;
41434;SDS011;27177;22.262;114.192;2022-07-06T03:42:45;18.10;;;7.72;;
41434;SDS011;27177;22.262;114.192;2022-07-06T03:45:12;19.67;;;7.65;;
41434;SDS011;27177;22.262;114.192;2022-07-06T03:47:40;15.35;;;7.80;;
41434;SDS011;27177;22.262;114.192;2022-07-06T03:50:07;15.15;;;7.90;;
41434;SDS011;27177;22.262;114.192;2022-07-06T03:52:35;18.08;;;8.00;;
41434;SDS011;27177;22.262;114.192;2022-07-06T03:55:11;19.55;;;7.60;;
41434;SDS011;27177;22.262;114.192;2022-07-06T03:57:38;15.60;;;7.50;;
41434;SDS011;27177;22.262;114.192;2022-07-06T04:00:06;12.65;;;6.70;;
41434;SDS011;27177;22.262;114.192;2022-07-06T04:02:34;11.48;;;6.40;;
41434;SDS011;27177;22.262;114.192;2022-07-06T04:05:02;19.67;;;7.05;;
41434;SDS011;27177;22.262;114.192;2022-07-06T04:07:29;17.13;;;6.93;;
41434;SDS011;27177;22.262;114.192;2022-07-06T04:09:56;19.20;;;7.53;;
41434;SDS011;27177;22.262;114.192;2022-07-06T04:12:23;18.60;;;6.90;;
41434;SDS011;27177;22.262;114.192;2022-07-06T04:14:50;14.65;;;5.93;;
41434;SDS011;27177;22.262;114.192;2022-07-06T04:17:17;16.98;;;6.55;;
41434;SDS011;27177;22.262;114.192;2022-07-06T04:20:02;18.13;;;6.93;;
41434;SDS011;27177;22.262;114.192;2022-07-06T04:22:30;14.75;;;6.38;;
41434;SDS011;27177;22.262;114.192;2022-07-06T04:24:57;17.35;;;6.22;;
41434;SDS011;27177;22.262;114.192;2022-07-06T04:27:23;14.30;;;6.43;;
41434;SDS011;27177;22.262;114.192;2022-07-06T04:29:50;16.98;;;6.75;;
41434;SDS011;27177;22.262;114.192;2022-07-06T04:32:19;15.90;;;6.68;;
41434;SDS011;27177;22.262;114.192;2022-07-06T04:34:46;17.20;;;7.78;;
41434;SDS011;27177;22.262;114.192;2022-07-06T04:37:13;17.05;;;7.32;;
41434;SDS011;27177;22.262;114.192;2022-07-06T04:39:40;14.98;;;6.93;;
41434;SDS011;27177;22.262;114.192;2022-07-06T04:42:07;15.52;;;6.70;;
41434;SDS011;27177;22.262;114.192;2022-07-06T04:44:34;14.13;;;7.03;;
41434;SDS011;27177;22.262;114.192;2022-07-06T04:47:01;17.25;;;7.47;;
41434;SDS011;27177;22.262;114.192;2022-07-06T04:49:28;13.43;;;6.35;;
41434;SDS011;27177;22.262;114.192;2022-07-06T04:51:54;17.50;;;6.85;;
41434;SDS011;27177;22.262;114.192;2022-07-06T04:54:21;14.15;;;6.97;;
41434;SDS011;27177;22.262;114.192;2022-07-06T04:56:48;14.68;;;6.53;;
41434;SDS011;27177;22.262;114.192;2022-07-06T04:59:15;16.75;;;7.10;;
41434;SDS011;27177;22.262;114.192;2022-07-06T05:01:42;17.08;;;6.25;;
41434;SDS011;27177;22.262;114.192;2022-07-06T05:04:09;14.18;;;7.22;;
41434;SDS011;27177;22.262;114.192;2022-07-06T05:06:37;12.25;;;6.00;;
41434;SDS011;27177;22.262;114.192;2022-07-06T05:09:03;22.50;;;6.65;;
41434;SDS011;27177;22.262;114.192;2022-07-06T05:11:30;9.65;;;3.25;;
41434;SDS011;27177;22.262;114.192;2022-07-06T05:13:57;4.75;;;2.15;;
41434;SDS011;27177;22.262;114.192;2022-07-06T05:16:24;2.92;;;1.23;;
41434;SDS011;27177;22.262;114.192;2022-07-06T05:18:51;3.38;;;0.98;;
41434;SDS011;27177;22.262;114.192;2022-07-06T05:21:19;4.85;;;1.33;;
41434;SDS011;27177;22.262;114.192;2022-07-06T05:23:46;3.50;;;1.00;;
41434;SDS011;27177;22.262;114.192;2022-07-06T05:26:13;2.75;;;0.90;;
41434;SDS011;27177;22.262;114.192;2022-07-06T05:28:40;1.95;;;0.93;;
41434;SDS011;27177;22.262;114.192;2022-07-06T05:31:07;1.70;;;0.73;;
41434;SDS011;27177;22.262;114.192;2022-07-06T05:33:34;2.10;;;1.08;;
41434;SDS011;27177;22.262;114.192;2022-07-06T05:36:01;3.38;;;1.02;;
41434;SDS011;27177;22.262;114.192;2022-07-06T05:38:28;5.22;;;1.58;;
41434;SDS011;27177;22.262;114.192;2022-07-06T05:40:55;3.70;;;0.90;;
41434;SDS011;27177;22.262;114.192;2022-07-06T05:43:22;1.80;;;0.75;;
41434;SDS011;27177;22.262;114.192;2022-07-06T05:45:49;4.60;;;1.33;;
41434;SDS011;27177;22.262;114.192;2022-07-06T05:48:16;3.10;;;0.85;;
41434;SDS011;27177;22.262;114.192;2022-07-06T05:51:02;2.00;;;0.90;;
41434;SDS011;27177;22.262;114.192;2022-07-06T05:53:29;2.30;;;0.95;;
41434;SDS011;27177;22.262;114.192;2022-07-06T05:55:56;6.40;;;1.20;;
41434;SDS011;27177;22.262;114.192;2022-07-06T05:58:22;1.90;;;0.90;;
41434;SDS011;27177;22.262;114.192;2022-07-06T06:00:50;1.58;;;0.95;;
41434;SDS011;27177;22.262;114.192;2022-07-06T06:03:17;2.10;;;0.88;;
41434;SDS011;27177;22.262;114.192;2022-07-06T06:05:44;4.20;;;1.15;;
41434;SDS011;27177;22.262;114.192;2022-07-06T06:08:11;2.72;;;1.15;;
41434;SDS011;27177;22.262;114.192;2022-07-06T06:10:38;4.63;;;1.42;;
41434;SDS011;27177;22.262;114.192;2022-07-06T06:13:05;4.90;;;1.38;;
41434;SDS011;27177;22.262;114.192;2022-07-06T06:15:32;5.97;;;1.58;;
41434;SDS011;27177;22.262;114.192;2022-07-06T06:18:00;4.28;;;1.23;;
41434;SDS011;27177;22.262;114.192;2022-07-06T06:20:29;4.68;;;1.60;;
41434;SDS011;27177;22.262;114.192;2022-07-06T06:22:57;10.43;;;1.70;;
41434;SDS011;27177;22.262;114.192;2022-07-06T06:25:28;2.88;;;1.08;;
41434;SDS011;27177;22.262;114.192;2022-07-06T06:27:57;4.25;;;1.33;;
41434;SDS011;27177;22.262;114.192;2022-07-06T06:30:24;3.88;;;1.08;;
41434;SDS011;27177;22.262;114.192;2022-07-06T06:32:52;7.38;;;1.63;;
41434;SDS011;27177;22.262;114.192;2022-07-06T06:35:41;8.88;;;1.98;;
41434;SDS011;27177;22.262;114.192;2022-07-06T06:38:13;5.30;;;1.20;;
41434;SDS011;27177;22.262;114.192;2022-07-06T06:40:41;7.35;;;1.85;;
41434;SDS011;27177;22.262;114.192;2022-07-06T06:43:08;5.38;;;1.65;;
41434;SDS011;27177;22.262;114.192;2022-07-06T06:45:35;6.30;;;1.30;;
41434;SDS011;27177;22.262;114.192;2022-07-06T06:48:02;8.30;;;1.88;;
41434;SDS011;27177;22.262;114.192;2022-07-06T06:50:30;7.75;;;2.20;;
41434;SDS011;27177;22.262;114.192;2022-07-06T06:52:57;5.13;;;1.35;;
41434;SDS011;27177;22.262;114.192;2022-07-06T06:55:25;4.50;;;1.38;;
41434;SDS011;27177;22.262;114.192;2022-07-06T06:57:52;4.45;;;1.70;;
41434;SDS011;27177;22.262;114.192;2022-07-06T07:00:19;6.65;;;1.90;;
41434;SDS011;27177;22.262;114.192;2022-07-06T07:02:46;4.85;;;1.30;;
41434;SDS011;27177;22.262;114.192;2022-07-06T07:05:13;4.05;;;1.60;;
41434;SDS011;27177;22.262;114.192;2022-07-06T07:07:40;7.55;;;1.48;;
41434;SDS011;27177;22.262;114.192;2022-07-06T07:10:07;5.82;;;1.20;;
41434;SDS011;27177;22.262;114.192;2022-07-06T07:12:46;6.60;;;1.70;;
41434;SDS011;27177;22.262;114.192;2022-07-06T07:15:14;8.43;;;1.73;;
41434;SDS011;27177;22.262;114.192;2022-07-06T07:17:41;10.32;;;1.55;;
41434;SDS011;27177;22.262;114.192;2022-07-06T07:20:08;6.50;;;1.80;;
41434;SDS011;27177;22.262;114.192;2022-07-06T07:22:35;12.52;;;1.92;;
41434;SDS011;27177;22.262;114.192;2022-07-06T07:25:03;6.60;;;1.55;;
41434;SDS011;27177;22.262;114.192;2022-07-06T07:27:30;4.20;;;1.45;;
41434;SDS011;27177;22.262;114.192;2022-07-06T07:29:57;7.50;;;1.85;;
41434;SDS011;27177;22.262;114.192;2022-07-06T07:32:24;6.65;;;1.65;;
41434;SDS011;27177;22.262;114.192;2022-07-06T07:34:51;6.85;;;1.90;;
41434;SDS011;27177;22.262;114.192;2022-07-06T07:37:18;6.90;;;1.67;;
41434;SDS011;27177;22.262;114.192;2022-07-06T07:39:45;11.10;;;2.17;;
41434;SDS011;27177;22.262;114.192;2022-07-06T07:42:12;6.03;;;1.42;;
41434;SDS011;27177;22.262;114.192;2022-07-06T07:44:39;6.38;;;2.40;;
41434;SDS011;27177;22.262;114.192;2022-07-06T07:47:06;7.13;;;2.00;;
41434;SDS011;27177;22.262;114.192;2022-07-06T07:49:33;9.13;;;2.05;;
41434;SDS011;27177;22.262;114.192;2022-07-06T07:52:00;4.30;;;1.58;;
41434;SDS011;27177;22.262;114.192;2022-07-06T07:54:27;8.77;;;1.92;;
41434;SDS011;27177;22.262;114.192;2022-07-06T07:56:54;8.75;;;2.58;;
41434;SDS011;27177;22.262;114.192;2022-07-06T07:59:21;6.03;;;2.05;;
41434;SDS011;27177;22.262;114.192;2022-07-06T08:01:48;9.73;;;2.20;;
41434;SDS011;27177;22.262;114.192;2022-07-06T08:04:15;7.70;;;1.80;;
41434;SDS011;27177;22.262;114.192;2022-07-06T08:06:42;5.32;;;1.20;;
41434;SDS011;27177;22.262;114.192;2022-07-06T08:09:09;6.65;;;1.65;;
41434;SDS011;27177;22.262;114.192;2022-07-06T08:11:36;5.07;;;1.85;;
41434;SDS011;27177;22.262;114.192;2022-07-06T08:14:03;6.15;;;2.13;;
41434;SDS011;27177;22.262;114.192;2022-07-06T08:16:31;5.60;;;2.03;;
41434;SDS011;27177;22.262;114.192;2022-07-06T08:18:58;5.60;;;1.55;;
41434;SDS011;27177;22.262;114.192;2022-07-06T08:21:25;4.32;;;2.15;;
41434;SDS011;27177;22.262;114.192;2022-07-06T08:23:52;5.45;;;1.70;;
41434;SDS011;27177;22.262;114.192;2022-07-06T08:26:21;6.25;;;1.77;;
41434;SDS011;27177;22.262;114.192;2022-07-06T08:28:48;8.05;;;1.92;;
41434;SDS011;27177;22.262;114.192;2022-07-06T08:31:15;5.72;;;1.83;;
41434;SDS011;27177;22.262;114.192;2022-07-06T08:33:43;8.73;;;2.20;;
41434;SDS011;27177;22.262;114.192;2022-07-06T08:36:10;9.10;;;2.58;;
41434;SDS011;27177;22.262;114.192;2022-07-06T08:38:37;10.55;;;3.45;;
41434;SDS011;27177;22.262;114.192;2022-07-06T08:41:04;6.70;;;2.30;;
41434;SDS011;27177;22.262;114.192;2022-07-06T08:43:32;9.25;;;2.30;;
41434;SDS011;27177;22.262;114.192;2022-07-06T08:46:00;14.27;;;2.90;;
41434;SDS011;27177;22.262;114.192;2022-07-06T08:48:28;9.07;;;2.25;;
41434;SDS011;27177;22.262;114.192;2022-07-06T08:51:01;7.78;;;2.28;;
41434;SDS011;27177;22.262;114.192;2022-07-06T08:53:28;6.53;;;2.28;;
41434;SDS011;27177;22.262;114.192;2022-07-06T08:55:55;6.13;;;2.00;;
41434;SDS011;27177;22.262;114.192;2022-07-06T08:58:26;8.10;;;2.63;;
41434;SDS011;27177;22.262;114.192;2022-07-06T09:00:56;7.78;;;2.22;;
41434;SDS011;27177;22.262;114.192;2022-07-06T09:03:24;9.80;;;2.50;;
41434;SDS011;27177;22.262;114.192;2022-07-06T09:05:51;8.07;;;2.20;;
41434;SDS011;27177;22.262;114.192;2022-07-06T09:08:21;6.50;;;2.17;;
41434;SDS011;27177;22.262;114.192;2022-07-06T09:10:49;6.63;;;1.90;;
41434;SDS011;27177;22.262;114.192;2022-07-06T09:13:16;7.97;;;1.83;;
41434;SDS011;27177;22.262;114.192;2022-07-06T09:15:43;5.43;;;2.15;;
41434;SDS011;27177;22.262;114.192;2022-07-06T09:18:10;7.95;;;2.10;;
41434;SDS011;27177;22.262;114.192;2022-07-06T09:20:37;6.57;;;1.65;;
41434;SDS011;27177;22.262;114.192;2022-07-06T09:23:06;5.82;;;1.88;;
41434;SDS011;27177;22.262;114.192;2022-07-06T09:25:33;5.88;;;1.98;;
41434;SDS011;27177;22.262;114.192;2022-07-06T09:28:01;4.38;;;1.52;;
41434;SDS011;27177;22.262;114.192;2022-07-06T09:30:30;8.38;;;2.10;;
41434;SDS011;27177;22.262;114.192;2022-07-06T09:32:58;8.02;;;1.77;;
41434;SDS011;27177;22.262;114.192;2022-07-06T09:38:09;9.82;;;1.98;;
41434;SDS011;27177;22.262;114.192;2022-07-06T09:40:41;6.07;;;2.05;;
41434;SDS011;27177;22.262;114.192;2022-07-06T09:43:19;5.43;;;1.52;;
41434;SDS011;27177;22.262;114.192;2022-07-06T09:45:51;5.15;;;1.58;;
41434;SDS011;27177;22.262;114.192;2022-07-06T09:48:20;6.00;;;2.00;;
41434;SDS011;27177;22.262;114.192;2022-07-06T09:50:52;6.63;;;2.08;;
41434;SDS011;27177;22.262;114.192;2022-07-06T09:53:22;7.78;;;2.08;;
41434;SDS011;27177;22.262;114.192;2022-07-06T09:55:51;8.35;;;1.77;;
41434;SDS011;27177;22.262;114.192;2022-07-06T09:58:21;8.05;;;2.00;;
41434;SDS011;27177;22.262;114.192;2022-07-06T10:00:49;6.93;;;1.77;;
41434;SDS011;27177;22.262;114.192;2022-07-06T10:03:18;8.07;;;2.53;;
41434;SDS011;27177;22.262;114.192;2022-07-06T10:05:48;4.88;;;1.58;;
41434;SDS011;27177;22.262;114.192;2022-07-06T10:08:15;4.53;;;1.60;;
41434;SDS011;27177;22.262;114.192;2022-07-06T10:10:43;4.22;;;1.40;;
41434;SDS011;27177;22.262;114.192;2022-07-06T10:13:11;4.68;;;1.60;;
41434;SDS011;27177;22.262;114.192;2022-07-06T10:15:40;6.30;;;1.55;;
41434;SDS011;27177;22.262;114.192;2022-07-06T10:18:08;4.70;;;2.08;;
41434;SDS011;27177;22.262;114.192;2022-07-06T10:20:36;5.43;;;1.60;;
41434;SDS011;27177;22.262;114.192;2022-07-06T10:23:05;4.75;;;1.40;;
41434;SDS011;27177;22.262;114.192;2022-07-06T10:25:33;7.25;;;1.60;;
41434;SDS011;27177;22.262;114.192;2022-07-06T10:28:01;3.55;;;1.58;;
41434;SDS011;27177;22.262;114.192;2022-07-06T10:30:28;6.15;;;1.95;;
41434;SDS011;27177;22.262;114.192;2022-07-06T10:32:57;6.15;;;2.35;;
41434;SDS011;27177;22.262;114.192;2022-07-06T10:35:26;6.53;;;2.08;;
41434;SDS011;27177;22.262;114.192;2022-07-06T10:38:11;6.03;;;2.30;;
41434;SDS011;27177;22.262;114.192;2022-07-06T10:40:38;7.35;;;2.40;;
41434;SDS011;27177;22.262;114.192;2022-07-06T10:46:09;7.18;;;1.90;;
41434;SDS011;27177;22.262;114.192;2022-07-06T10:48:38;5.85;;;1.80;;
41434;SDS011;27177;22.262;114.192;2022-07-06T10:51:13;5.40;;;1.70;;
41434;SDS011;27177;22.262;114.192;2022-07-06T10:53:55;4.07;;;1.60;;
41434;SDS011;27177;22.262;114.192;2022-07-06T10:56:33;6.68;;;1.85;;
41434;SDS011;27177;22.262;114.192;2022-07-06T10:59:11;2.33;;;1.30;;
41434;SDS011;27177;22.262;114.192;2022-07-06T11:02:29;4.60;;;1.30;;
41434;SDS011;27177;22.262;114.192;2022-07-06T11:04:42;5.55;;;1.23;;
41434;SDS011;27177;22.262;114.192;2022-07-06T11:07:12;4.90;;;1.90;;
41434;SDS011;27177;22.262;114.192;2022-07-06T11:09:56;3.80;;;1.30;;
41434;SDS011;27177;22.262;114.192;2022-07-06T11:12:24;3.25;;;1.45;;
41434;SDS011;27177;22.262;114.192;2022-07-06T11:14:52;3.30;;;1.60;;
41434;SDS011;27177;22.262;114.192;2022-07-06T11:17:19;5.05;;;1.23;;
41434;SDS011;27177;22.262;114.192;2022-07-06T11:19:54;3.10;;;1.10;;
41434;SDS011;27177;22.262;114.192;2022-07-06T11:22:23;3.58;;;1.10;;
41434;SDS011;27177;22.262;114.192;2022-07-06T11:24:50;3.38;;;1.42;;
41434;SDS011;27177;22.262;114.192;2022-07-06T11:27:18;5.70;;;1.05;;
41434;SDS011;27177;22.262;114.192;2022-07-06T11:29:48;1.88;;;1.15;;
41434;SDS011;27177;22.262;114.192;2022-07-06T11:32:15;2.65;;;1.00;;
41434;SDS011;27177;22.262;114.192;2022-07-06T11:34:48;4.15;;;1.25;;
41434;SDS011;27177;22.262;114.192;2022-07-06T11:37:15;2.20;;;1.20;;
41434;SDS011;27177;22.262;114.192;2022-07-06T11:39:46;3.30;;;1.23;;
41434;SDS011;27177;22.262;114.192;2022-07-06T11:42:15;2.33;;;1.02;;
41434;SDS011;27177;22.262;114.192;2022-07-06T11:44:43;3.00;;;1.05;;
41434;SDS011;27177;22.262;114.192;2022-07-06T11:47:11;3.53;;;1.13;;
41434;SDS011;27177;22.262;114.192;2022-07-06T11:49:39;2.47;;;0.90;;
41434;SDS011;27177;22.262;114.192;2022-07-06T11:54:36;2.78;;;1.38;;
41434;SDS011;27177;22.262;114.192;2022-07-06T11:57:06;1.85;;;0.90;;
41434;SDS011;27177;22.262;114.192;2022-07-06T11:59:36;3.53;;;1.33;;
41434;SDS011;27177;22.262;114.192;2022-07-06T12:02:09;3.03;;;0.98;;
41434;SDS011;27177;22.262;114.192;2022-07-06T12:04:38;7.47;;;1.90;;
41434;SDS011;27177;22.262;114.192;2022-07-06T12:07:11;2.08;;;1.00;;
41434;SDS011;27177;22.262;114.192;2022-07-06T12:09:40;1.42;;;0.90;;
41434;SDS011;27177;22.262;114.192;2022-07-06T12:12:08;5.72;;;1.40;;
41434;SDS011;27177;22.262;114.192;2022-07-06T12:14:36;1.73;;;0.90;;
41434;SDS011;27177;22.262;114.192;2022-07-06T12:17:08;3.45;;;0.98;;
41434;SDS011;27177;22.262;114.192;2022-07-06T12:19:37;3.58;;;1.10;;
41434;SDS011;27177;22.262;114.192;2022-07-06T12:22:04;1.77;;;1.00;;
41434;SDS011;27177;22.262;114.192;2022-07-06T12:24:33;1.35;;;1.20;;
41434;SDS011;27177;22.262;114.192;2022-07-06T12:27:11;3.65;;;1.05;;
41434;SDS011;27177;22.262;114.192;2022-07-06T12:29:43;4.32;;;1.20;;
41434;SDS011;27177;22.262;114.192;2022-07-06T12:32:20;3.08;;;1.08;;
41434;SDS011;27177;22.262;114.192;2022-07-06T12:35:01;2.63;;;0.90;;
41434;SDS011;27177;22.262;114.192;2022-07-06T12:37:32;4.05;;;1.00;;
41434;SDS011;27177;22.262;114.192;2022-07-06T12:39:59;5.20;;;1.98;;
41434;SDS011;27177;22.262;114.192;2022-07-06T12:42:26;4.00;;;1.20;;
41434;SDS011;27177;22.262;114.192;2022-07-06T12:44:53;4.68;;;1.00;;
41434;SDS011;27177;22.262;114.192;2022-07-06T12:47:22;3.22;;;1.30;;
41434;SDS011;27177;22.262;114.192;2022-07-06T12:50:09;6.80;;;1.10;;
41434;SDS011;27177;22.262;114.192;2022-07-06T12:52:38;3.35;;;1.15;;
41434;SDS011;27177;22.262;114.192;2022-07-06T12:55:05;3.10;;;1.45;;
41434;SDS011;27177;22.262;114.192;2022-07-06T12:57:45;1.85;;;0.90;;
41434;SDS011;27177;22.262;114.192;2022-07-06T13:00:13;3.97;;;1.38;;
41434;SDS011;27177;22.262;114.192;2022-07-06T13:02:44;4.85;;;2.33;;
41434;SDS011;27177;22.262;114.192;2022-07-06T13:05:14;1.63;;;1.02;;
41434;SDS011;27177;22.262;114.192;2022-07-06T13:07:46;1.98;;;0.93;;
41434;SDS011;27177;22.262;114.192;2022-07-06T13:10:14;3.78;;;1.20;;
41434;SDS011;27177;22.262;114.192;2022-07-06T13:12:41;3.85;;;1.02;;
41434;SDS011;27177;22.262;114.192;2022-07-06T13:15:09;2.42;;;1.00;;
41434;SDS011;27177;22.262;114.192;2022-07-06T13:17:36;3.90;;;1.15;;
41434;SDS011;27177;22.262;114.192;2022-07-06T13:20:04;7.43;;;1.40;;
41434;SDS011;27177;22.262;114.192;2022-07-06T13:22:33;4.75;;;1.10;;
41434;SDS011;27177;22.262;114.192;2022-07-06T13:25:00;5.28;;;1.65;;
41434;SDS011;27177;22.262;114.192;2022-07-06T13:27:28;5.30;;;1.20;;
41434;SDS011;27177;22.262;114.192;2022-07-06T13:29:55;4.22;;;1.15;;
41434;SDS011;27177;22.262;114.192;2022-07-06T13:32:22;5.57;;;1.33;;
41434;SDS011;27177;22.262;114.192;2022-07-06T13:34:49;6.43;;;1.20;;
41434;SDS011;27177;22.262;114.192;2022-07-06T13:37:16;4.68;;;1.55;;
41434;SDS011;27177;22.262;114.192;2022-07-06T13:39:48;5.60;;;1.63;;
41434;SDS011;27177;22.262;114.192;2022-07-06T13:42:15;5.57;;;1.33;;
41434;SDS011;27177;22.262;114.192;2022-07-06T13:44:42;7.97;;;1.45;;
41434;SDS011;27177;22.262;114.192;2022-07-06T13:47:09;3.00;;;1.10;;
41434;SDS011;27177;22.262;114.192;2022-07-06T13:49:36;4.85;;;1.30;;
41434;SDS011;27177;22.262;114.192;2022-07-06T13:52:03;6.22;;;1.42;;
41434;SDS011;27177;22.262;114.192;2022-07-06T13:54:31;9.07;;;1.80;;
41434;SDS011;27177;22.262;114.192;2022-07-06T13:57:03;4.88;;;1.45;;
41434;SDS011;27177;22.262;114.192;2022-07-06T13:59:32;5.97;;;2.05;;
41434;SDS011;27177;22.262;114.192;2022-07-06T14:01:59;5.47;;;2.10;;
41434;SDS011;27177;22.262;114.192;2022-07-06T14:04:27;4.28;;;1.65;;
41434;SDS011;27177;22.262;114.192;2022-07-06T14:06:54;6.22;;;1.85;;
41434;SDS011;27177;22.262;114.192;2022-07-06T14:09:21;5.93;;;1.88;;
41434;SDS011;27177;22.262;114.192;2022-07-06T14:11:48;5.47;;;1.73;;
41434;SDS011;27177;22.262;114.192;2022-07-06T14:14:15;5.57;;;1.67;;
41434;SDS011;27177;22.262;114.192;2022-07-06T14:16:42;7.57;;;1.98;;
41434;SDS011;27177;22.262;114.192;2022-07-06T14:19:09;4.55;;;1.65;;
41434;SDS011;27177;22.262;114.192;2022-07-06T14:21:36;5.63;;;2.08;;
41434;SDS011;27177;22.262;114.192;2022-07-06T14:24:03;6.10;;;1.98;;
41434;SDS011;27177;22.262;114.192;2022-07-06T14:26:30;4.60;;;2.28;;
41434;SDS011;27177;22.262;114.192;2022-07-06T14:28:58;5.20;;;2.10;;
41434;SDS011;27177;22.262;114.192;2022-07-06T14:31:25;4.82;;;2.03;;